sensor_id;sensor_type;location;lat;lon;timestamp;temperature;humidity
21895;DHT22;11112;51.270;7.224;2022-12-20T00:01:27;7.40;99.90
21895;DHT22;11112;51.270;7.224;2022-12-20T00:03:57;7.40;99.90
21895;DHT22;11112;51.270;7.224;2022-12-20T00:06:27;7.40;99.90
21895;DHT22;11112;51.270;7.224;2022-12-20T00:08:56;7.40;99.90
21895;DHT22;11112;51.270;7.224;2022-12-20T00:11:28;7.40;99.90
21895;DHT22;11112;51.270;7.224;2022-12-20T00:13:55;7.40;99.90
21895;DHT22;11112;51.270;7.224;2022-12-20T00:16:25;7.40;99.90
21895;DHT22;11112;51.270;7.224;2022-12-20T00:18:56;7.40;99.90
21895;DHT22;11112;51.270;7.224;2022-12-20T00:21:25;7.40;99.90
21895;DHT22;11112;51.270;7.224;2022-12-20T00:23:56;7.40;99.90
21895;DHT22;11112;51.270;7.224;2022-12-20T00:26:29;7.40;99.90
21895;DHT22;11112;51.270;7.224;2022-12-20T00:29:00;7.40;99.90
21895;DHT22;11112;51.270;7.224;2022-12-20T00:31:28;7.40;99.90
21895;DHT22;11112;51.270;7.224;2022-12-20T00:33:57;7.40;99.90
21895;DHT22;11112;51.270;7.224;2022-12-20T00:36:28;7.50;99.90
21895;DHT22;11112;51.270;7.224;2022-12-20T00:38:57;7.50;99.90
21895;DHT22;11112;51.270;7.224;2022-12-20T00:41:33;7.50;99.90
21895;DHT22;11112;51.270;7.224;2022-12-20T00:44:00;7.50;99.90
21895;DHT22;11112;51.270;7.224;2022-12-20T00:46:30;7.50;99.90
21895;DHT22;11112;51.270;7.224;2022-12-20T00:48:59;7.40;99.90
21895;DHT22;11112;51.270;7.224;2022-12-20T00:51:29;7.50;99.90
21895;DHT22;11112;51.270;7.224;2022-12-20T00:53:57;7.50;99.90
21895;DHT22;11112;51.270;7.224;2022-12-20T00:56:26;7.50;99.90
21895;DHT22;11112;51.270;7.224;2022-12-20T00:58:58;7.50;99.90
21895;DHT22;11112;51.270;7.224;2022-12-20T01:01:27;7.50;99.90
21895;DHT22;11112;51.270;7.224;2022-12-20T01:03:55;7.50;99.90
21895;DHT22;11112;51.270;7.224;2022-12-20T01:06:23;7.60;99.90
21895;DHT22;11112;51.270;7.224;2022-12-20T01:08:55;7.60;99.90
21895;DHT22;11112;51.270;7.224;2022-12-20T01:11:27;7.60;99.90
21895;DHT22;11112;51.270;7.224;2022-12-20T01:14:00;7.60;99.90
21895;DHT22;11112;51.270;7.224;2022-12-20T01:16:30;7.60;99.90
21895;DHT22;11112;51.270;7.224;2022-12-20T01:19:01;7.60;99.90
21895;DHT22;11112;51.270;7.224;2022-12-20T01:21:29;7.60;99.90
21895;DHT22;11112;51.270;7.224;2022-12-20T01:23:57;7.70;99.90
21895;DHT22;11112;51.270;7.224;2022-12-20T01:26:26;7.70;99.90
21895;DHT22;11112;51.270;7.224;2022-12-20T01:28:57;7.70;99.90
21895;DHT22;11112;51.270;7.224;2022-12-20T01:31:27;7.70;99.90
21895;DHT22;11112;51.270;7.224;2022-12-20T01:33:56;7.70;99.90
21895;DHT22;11112;51.270;7.224;2022-12-20T01:36:25;7.70;99.90
21895;DHT22;11112;51.270;7.224;2022-12-20T01:38:55;7.70;99.90
21895;DHT22;11112;51.270;7.224;2022-12-20T01:41:27;7.80;99.90
21895;DHT22;11112;51.270;7.224;2022-12-20T01:43:59;7.80;99.90
21895;DHT22;11112;51.270;7.224;2022-12-20T01:46:31;7.70;99.90
21895;DHT22;11112;51.270;7.224;2022-12-20T01:49:05;7.70;99.90
21895;DHT22;11112;51.270;7.224;2022-12-20T01:51:40;7.80;99.90
21895;DHT22;11112;51.270;7.224;2022-12-20T01:54:12;7.80;99.90
21895;DHT22;11112;51.270;7.224;2022-12-20T01:56:43;7.70;99.90
21895;DHT22;11112;51.270;7.224;2022-12-20T01:59:15;7.70;99.90
21895;DHT22;11112;51.270;7.224;2022-12-20T02:01:45;7.70;99.90
21895;DHT22;11112;51.270;7.224;2022-12-20T02:04:15;7.70;99.90
21895;DHT22;11112;51.270;7.224;2022-12-20T02:06:44;7.70;99.90
21895;DHT22;11112;51.270;7.224;2022-12-20T02:09:11;7.70;99.90
21895;DHT22;11112;51.270;7.224;2022-12-20T02:11:54;7.70;99.90
21895;DHT22;11112;51.270;7.224;2022-12-20T02:14:40;7.70;99.90
21895;DHT22;11112;51.270;7.224;2022-12-20T02:17:20;7.70;99.90
21895;DHT22;11112;51.270;7.224;2022-12-20T02:30:06;7.70;99.90
21895;DHT22;11112;51.270;7.224;2022-12-20T02:32:39;7.70;99.90
21895;DHT22;11112;51.270;7.224;2022-12-20T02:35:13;7.70;99.90
21895;DHT22;11112;51.270;7.224;2022-12-20T02:37:47;7.70;99.90
21895;DHT22;11112;51.270;7.224;2022-12-20T02:40:20;7.60;99.90
21895;DHT22;11112;51.270;7.224;2022-12-20T02:42:52;7.60;99.90
21895;DHT22;11112;51.270;7.224;2022-12-20T02:45:27;7.60;99.90
21895;DHT22;11112;51.270;7.224;2022-12-20T02:48:00;7.60;99.90
21895;DHT22;11112;51.270;7.224;2022-12-20T02:50:33;7.60;99.90
21895;DHT22;11112;51.270;7.224;2022-12-20T02:53:03;7.60;99.90
21895;DHT22;11112;51.270;7.224;2022-12-20T02:55:40;7.60;99.90
21895;DHT22;11112;51.270;7.224;2022-12-20T02:58:16;7.60;99.90
21895;DHT22;11112;51.270;7.224;2022-12-20T03:00:52;7.60;99.90
21895;DHT22;11112;51.270;7.224;2022-12-20T03:03:21;7.60;99.90
21895;DHT22;11112;51.270;7.224;2022-12-20T03:05:50;7.60;99.90
21895;DHT22;11112;51.270;7.224;2022-12-20T03:08:20;7.60;99.90
21895;DHT22;11112;51.270;7.224;2022-12-20T03:10:50;7.60;99.90
21895;DHT22;11112;51.270;7.224;2022-12-20T03:13:19;7.60;99.90
21895;DHT22;11112;51.270;7.224;2022-12-20T03:15:49;7.60;99.90
21895;DHT22;11112;51.270;7.224;2022-12-20T03:18:18;7.60;99.90
21895;DHT22;11112;51.270;7.224;2022-12-20T03:20:46;7.60;99.90
21895;DHT22;11112;51.270;7.224;2022-12-20T03:23:14;7.60;99.90
21895;DHT22;11112;51.270;7.224;2022-12-20T03:25:43;7.70;99.90
21895;DHT22;11112;51.270;7.224;2022-12-20T03:28:10;7.60;99.90
21895;DHT22;11112;51.270;7.224;2022-12-20T03:30:39;7.60;99.90
21895;DHT22;11112;51.270;7.224;2022-12-20T03:33:07;7.60;99.90
21895;DHT22;11112;51.270;7.224;2022-12-20T03:35:34;7.60;99.90
21895;DHT22;11112;51.270;7.224;2022-12-20T03:38:02;7.60;99.90
21895;DHT22;11112;51.270;7.224;2022-12-20T03:40:30;7.60;99.90
21895;DHT22;11112;51.270;7.224;2022-12-20T03:42:58;7.60;99.90
21895;DHT22;11112;51.270;7.224;2022-12-20T03:45:26;7.60;99.90
21895;DHT22;11112;51.270;7.224;2022-12-20T03:47:53;7.60;99.90
21895;DHT22;11112;51.270;7.224;2022-12-20T03:50:22;7.60;99.90
21895;DHT22;11112;51.270;7.224;2022-12-20T03:52:49;7.60;99.90
21895;DHT22;11112;51.270;7.224;2022-12-20T03:55:16;7.60;99.90
21895;DHT22;11112;51.270;7.224;2022-12-20T03:57:45;7.70;99.90
21895;DHT22;11112;51.270;7.224;2022-12-20T04:00:15;7.70;99.90
21895;DHT22;11112;51.270;7.224;2022-12-20T04:02:45;7.70;99.90
21895;DHT22;11112;51.270;7.224;2022-12-20T04:05:12;7.70;99.90
21895;DHT22;11112;51.270;7.224;2022-12-20T04:07:42;7.70;99.90
21895;DHT22;11112;51.270;7.224;2022-12-20T04:10:10;7.70;99.90
21895;DHT22;11112;51.270;7.224;2022-12-20T04:12:37;7.70;99.90
21895;DHT22;11112;51.270;7.224;2022-12-20T04:15:06;7.70;99.90
21895;DHT22;11112;51.270;7.224;2022-12-20T04:17:34;7.70;99.90
21895;DHT22;11112;51.270;7.224;2022-12-20T04:20:02;7.70;99.90
21895;DHT22;11112;51.270;7.224;2022-12-20T04:22:45;7.70;99.90
21895;DHT22;11112;51.270;7.224;2022-12-20T04:25:14;7.70;99.90
21895;DHT22;11112;51.270;7.224;2022-12-20T04:27:42;7.70;99.90
21895;DHT22;11112;51.270;7.224;2022-12-20T04:30:11;7.70;99.90
21895;DHT22;11112;51.270;7.224;2022-12-20T04:32:39;7.70;99.90
21895;DHT22;11112;51.270;7.224;2022-12-20T04:35:10;7.70;99.90
21895;DHT22;11112;51.270;7.224;2022-12-20T04:37:40;7.70;99.90
21895;DHT22;11112;51.270;7.224;2022-12-20T04:40:10;7.80;99.90
21895;DHT22;11112;51.270;7.224;2022-12-20T04:42:38;7.80;99.90
21895;DHT22;11112;51.270;7.224;2022-12-20T04:45:07;7.80;99.90
21895;DHT22;11112;51.270;7.224;2022-12-20T04:47:34;7.80;99.90
21895;DHT22;11112;51.270;7.224;2022-12-20T04:50:02;7.80;99.90
21895;DHT22;11112;51.270;7.224;2022-12-20T04:52:29;7.80;99.90
21895;DHT22;11112;51.270;7.224;2022-12-20T04:55:15;7.80;99.90
21895;DHT22;11112;51.270;7.224;2022-12-20T04:57:44;7.80;99.90
21895;DHT22;11112;51.270;7.224;2022-12-20T05:00:12;7.80;99.90
21895;DHT22;11112;51.270;7.224;2022-12-20T05:02:43;7.80;99.90
21895;DHT22;11112;51.270;7.224;2022-12-20T05:05:12;7.80;99.90
21895;DHT22;11112;51.270;7.224;2022-12-20T05:07:39;7.80;99.90
21895;DHT22;11112;51.270;7.224;2022-12-20T05:10:07;7.80;99.90
21895;DHT22;11112;51.270;7.224;2022-12-20T05:12:37;7.80;99.90
21895;DHT22;11112;51.270;7.224;2022-12-20T05:15:06;7.80;99.90
21895;DHT22;11112;51.270;7.224;2022-12-20T05:17:34;7.80;99.90
21895;DHT22;11112;51.270;7.224;2022-12-20T05:20:04;7.90;99.90
21895;DHT22;11112;51.270;7.224;2022-12-20T05:22:37;7.90;99.90
21895;DHT22;11112;51.270;7.224;2022-12-20T05:25:22;7.80;99.90
21895;DHT22;11112;51.270;7.224;2022-12-20T05:28:23;7.90;99.90
21895;DHT22;11112;51.270;7.224;2022-12-20T05:30:50;7.90;99.90
21895;DHT22;11112;51.270;7.224;2022-12-20T05:33:20;7.80;99.90
21895;DHT22;11112;51.270;7.224;2022-12-20T05:35:53;7.80;99.90
21895;DHT22;11112;51.270;7.224;2022-12-20T05:38:21;7.80;99.90
21895;DHT22;11112;51.270;7.224;2022-12-20T05:40:49;7.80;99.90
21895;DHT22;11112;51.270;7.224;2022-12-20T05:43:18;7.80;99.90
21895;DHT22;11112;51.270;7.224;2022-12-20T05:45:50;7.80;99.90
21895;DHT22;11112;51.270;7.224;2022-12-20T05:48:18;7.80;99.90
21895;DHT22;11112;51.270;7.224;2022-12-20T05:50:46;7.80;99.90
21895;DHT22;11112;51.270;7.224;2022-12-20T05:53:15;7.80;99.90
21895;DHT22;11112;51.270;7.224;2022-12-20T05:55:46;7.80;99.90
21895;DHT22;11112;51.270;7.224;2022-12-20T05:58:16;7.80;99.90
21895;DHT22;11112;51.270;7.224;2022-12-20T06:00:44;7.80;99.90
21895;DHT22;11112;51.270;7.224;2022-12-20T06:03:16;7.80;99.90
21895;DHT22;11112;51.270;7.224;2022-12-20T06:05:45;7.80;99.90
21895;DHT22;11112;51.270;7.224;2022-12-20T06:08:31;7.80;99.90
21895;DHT22;11112;51.270;7.224;2022-12-20T06:11:16;7.90;99.90
21895;DHT22;11112;51.270;7.224;2022-12-20T06:13:44;7.80;99.90
21895;DHT22;11112;51.270;7.224;2022-12-20T06:16:14;7.80;99.90
21895;DHT22;11112;51.270;7.224;2022-12-20T06:18:41;7.90;99.90
21895;DHT22;11112;51.270;7.224;2022-12-20T06:21:09;7.80;99.90
21895;DHT22;11112;51.270;7.224;2022-12-20T06:23:40;7.90;99.90
21895;DHT22;11112;51.270;7.224;2022-12-20T06:26:09;7.90;99.90
21895;DHT22;11112;51.270;7.224;2022-12-20T06:28:36;7.90;99.90
21895;DHT22;11112;51.270;7.224;2022-12-20T06:31:08;7.90;99.90
21895;DHT22;11112;51.270;7.224;2022-12-20T06:33:37;7.90;99.90
21895;DHT22;11112;51.270;7.224;2022-12-20T06:36:05;7.90;99.90
21895;DHT22;11112;51.270;7.224;2022-12-20T06:38:32;7.90;99.90
21895;DHT22;11112;51.270;7.224;2022-12-20T06:41:01;7.90;99.90
21895;DHT22;11112;51.270;7.224;2022-12-20T06:43:28;7.90;99.90
21895;DHT22;11112;51.270;7.224;2022-12-20T06:45:56;7.90;99.90
21895;DHT22;11112;51.270;7.224;2022-12-20T06:48:24;7.90;99.90
21895;DHT22;11112;51.270;7.224;2022-12-20T06:50:52;7.90;99.90
21895;DHT22;11112;51.270;7.224;2022-12-20T06:53:19;7.90;99.90
21895;DHT22;11112;51.270;7.224;2022-12-20T06:55:47;7.90;99.90
21895;DHT22;11112;51.270;7.224;2022-12-20T06:58:17;7.90;99.90
21895;DHT22;11112;51.270;7.224;2022-12-20T07:00:44;7.90;99.90
21895;DHT22;11112;51.270;7.224;2022-12-20T07:03:12;7.90;99.90
21895;DHT22;11112;51.270;7.224;2022-12-20T07:05:40;7.90;99.90
21895;DHT22;11112;51.270;7.224;2022-12-20T07:08:09;7.90;99.90
21895;DHT22;11112;51.270;7.224;2022-12-20T07:10:37;7.90;99.90
21895;DHT22;11112;51.270;7.224;2022-12-20T07:13:04;7.90;99.90
21895;DHT22;11112;51.270;7.224;2022-12-20T07:15:34;7.90;99.90
21895;DHT22;11112;51.270;7.224;2022-12-20T07:18:01;7.90;99.90
21895;DHT22;11112;51.270;7.224;2022-12-20T07:20:29;7.90;99.90
21895;DHT22;11112;51.270;7.224;2022-12-20T07:22:59;7.90;99.90
21895;DHT22;11112;51.270;7.224;2022-12-20T07:25:28;7.90;99.90
21895;DHT22;11112;51.270;7.224;2022-12-20T07:27:55;7.90;99.90
21895;DHT22;11112;51.270;7.224;2022-12-20T07:30:22;7.90;99.90
21895;DHT22;11112;51.270;7.224;2022-12-20T07:32:51;7.90;99.90
21895;DHT22;11112;51.270;7.224;2022-12-20T07:35:19;7.90;99.90
21895;DHT22;11112;51.270;7.224;2022-12-20T07:37:48;7.90;99.90
21895;DHT22;11112;51.270;7.224;2022-12-20T07:40:16;7.90;99.90
21895;DHT22;11112;51.270;7.224;2022-12-20T07:42:44;7.90;99.90
21895;DHT22;11112;51.270;7.224;2022-12-20T07:45:12;7.90;99.90
21895;DHT22;11112;51.270;7.224;2022-12-20T07:47:40;8.00;99.90
21895;DHT22;11112;51.270;7.224;2022-12-20T07:50:13;7.90;99.90
21895;DHT22;11112;51.270;7.224;2022-12-20T07:52:42;7.90;99.90
21895;DHT22;11112;51.270;7.224;2022-12-20T07:55:12;8.00;99.90
21895;DHT22;11112;51.270;7.224;2022-12-20T07:57:46;8.00;99.90
21895;DHT22;11112;51.270;7.224;2022-12-20T08:00:16;8.00;99.90
21895;DHT22;11112;51.270;7.224;2022-12-20T08:02:47;8.00;99.90
21895;DHT22;11112;51.270;7.224;2022-12-20T08:05:15;7.90;99.90
21895;DHT22;11112;51.270;7.224;2022-12-20T08:07:43;8.00;99.90
21895;DHT22;11112;51.270;7.224;2022-12-20T08:10:15;8.00;99.90
21895;DHT22;11112;51.270;7.224;2022-12-20T08:12:50;8.00;99.90
21895;DHT22;11112;51.270;7.224;2022-12-20T08:15:20;8.00;99.90
21895;DHT22;11112;51.270;7.224;2022-12-20T08:17:48;8.00;99.90
21895;DHT22;11112;51.270;7.224;2022-12-20T08:20:16;8.00;99.90
21895;DHT22;11112;51.270;7.224;2022-12-20T08:22:44;8.00;99.90
21895;DHT22;11112;51.270;7.224;2022-12-20T08:25:12;8.00;99.90
21895;DHT22;11112;51.270;7.224;2022-12-20T08:27:39;8.00;99.90
21895;DHT22;11112;51.270;7.224;2022-12-20T08:30:13;8.00;99.90
21895;DHT22;11112;51.270;7.224;2022-12-20T08:32:41;8.00;99.90
21895;DHT22;11112;51.270;7.224;2022-12-20T08:35:15;8.00;99.90
21895;DHT22;11112;51.270;7.224;2022-12-20T08:37:44;8.10;99.90
21895;DHT22;11112;51.270;7.224;2022-12-20T08:40:12;8.10;99.90
21895;DHT22;11112;51.270;7.224;2022-12-20T08:42:43;8.10;99.90
21895;DHT22;11112;51.270;7.224;2022-12-20T08:45:13;8.10;99.90
21895;DHT22;11112;51.270;7.224;2022-12-20T08:47:40;8.10;99.90
21895;DHT22;11112;51.270;7.224;2022-12-20T08:50:08;8.10;99.90
21895;DHT22;11112;51.270;7.224;2022-12-20T08:52:36;8.10;99.90
21895;DHT22;11112;51.270;7.224;2022-12-20T08:55:05;8.10;99.90
21895;DHT22;11112;51.270;7.224;2022-12-20T08:57:33;8.10;99.90
21895;DHT22;11112;51.270;7.224;2022-12-20T09:00:00;8.10;99.90
21895;DHT22;11112;51.270;7.224;2022-12-20T09:02:30;8.10;99.90
21895;DHT22;11112;51.270;7.224;2022-12-20T09:04:58;8.20;99.90
21895;DHT22;11112;51.270;7.224;2022-12-20T09:07:26;8.10;99.90
21895;DHT22;11112;51.270;7.224;2022-12-20T09:09:54;8.20;99.90
21895;DHT22;11112;51.270;7.224;2022-12-20T09:12:21;8.20;99.90
21895;DHT22;11112;51.270;7.224;2022-12-20T09:14:51;8.20;99.90
21895;DHT22;11112;51.270;7.224;2022-12-20T09:17:18;8.20;99.90
21895;DHT22;11112;51.270;7.224;2022-12-20T09:19:48;8.20;99.90
21895;DHT22;11112;51.270;7.224;2022-12-20T09:22:15;8.20;99.90
21895;DHT22;11112;51.270;7.224;2022-12-20T09:24:46;8.20;99.90
21895;DHT22;11112;51.270;7.224;2022-12-20T09:27:13;8.20;99.90
21895;DHT22;11112;51.270;7.224;2022-12-20T09:29:41;8.20;99.90
21895;DHT22;11112;51.270;7.224;2022-12-20T09:32:09;8.20;99.90
21895;DHT22;11112;51.270;7.224;2022-12-20T09:34:39;8.20;99.90
21895;DHT22;11112;51.270;7.224;2022-12-20T09:37:10;8.20;99.90
21895;DHT22;11112;51.270;7.224;2022-12-20T09:39:37;8.20;99.90
21895;DHT22;11112;51.270;7.224;2022-12-20T09:42:06;8.20;99.90
21895;DHT22;11112;51.270;7.224;2022-12-20T09:44:37;8.20;99.90
21895;DHT22;11112;51.270;7.224;2022-12-20T09:47:11;8.20;99.90
21895;DHT22;11112;51.270;7.224;2022-12-20T09:49:43;8.30;99.90
21895;DHT22;11112;51.270;7.224;2022-12-20T09:52:31;8.30;99.90
21895;DHT22;11112;51.270;7.224;2022-12-20T09:55:19;8.30;99.90
21895;DHT22;11112;51.270;7.224;2022-12-20T09:58:01;8.30;99.90
21895;DHT22;11112;51.270;7.224;2022-12-20T10:00:40;8.30;99.90
21895;DHT22;11112;51.270;7.224;2022-12-20T10:03:16;8.40;99.90
21895;DHT22;11112;51.270;7.224;2022-12-20T10:05:50;8.40;99.90
21895;DHT22;11112;51.270;7.224;2022-12-20T10:08:36;8.40;99.90
21895;DHT22;11112;51.270;7.224;2022-12-20T10:11:25;8.40;99.90
21895;DHT22;11112;51.270;7.224;2022-12-20T10:14:10;8.40;99.90
21895;DHT22;11112;51.270;7.224;2022-12-20T10:16:45;8.50;99.90
21895;DHT22;11112;51.270;7.224;2022-12-20T10:19:28;8.50;99.90
21895;DHT22;11112;51.270;7.224;2022-12-20T10:22:07;8.50;99.90
21895;DHT22;11112;51.270;7.224;2022-12-20T10:24:46;8.60;99.90
21895;DHT22;11112;51.270;7.224;2022-12-20T10:27:26;8.60;99.90
21895;DHT22;11112;51.270;7.224;2022-12-20T10:29:53;8.60;99.90
21895;DHT22;11112;51.270;7.224;2022-12-20T10:32:23;8.60;99.90
21895;DHT22;11112;51.270;7.224;2022-12-20T10:34:54;8.60;99.90
21895;DHT22;11112;51.270;7.224;2022-12-20T10:37:56;8.60;99.90
21895;DHT22;11112;51.270;7.224;2022-12-20T10:40:31;8.70;99.90
21895;DHT22;11112;51.270;7.224;2022-12-20T10:43:01;8.70;99.90
21895;DHT22;11112;51.270;7.224;2022-12-20T10:45:41;8.70;99.90
21895;DHT22;11112;51.270;7.224;2022-12-20T10:48:25;8.70;99.90
21895;DHT22;11112;51.270;7.224;2022-12-20T10:50:56;8.70;99.90
21895;DHT22;11112;51.270;7.224;2022-12-20T10:53:28;8.70;99.90
21895;DHT22;11112;51.270;7.224;2022-12-20T10:56:14;8.70;99.90
21895;DHT22;11112;51.270;7.224;2022-12-20T10:58:52;8.70;99.90
21895;DHT22;11112;51.270;7.224;2022-12-20T11:01:26;8.70;99.90
21895;DHT22;11112;51.270;7.224;2022-12-20T11:03:58;8.70;99.90
21895;DHT22;11112;51.270;7.224;2022-12-20T11:06:29;8.70;99.90
21895;DHT22;11112;51.270;7.224;2022-12-20T11:09:25;8.80;99.90
21895;DHT22;11112;51.270;7.224;2022-12-20T11:12:04;8.80;99.90
21895;DHT22;11112;51.270;7.224;2022-12-20T11:14:35;8.80;99.90
21895;DHT22;11112;51.270;7.224;2022-12-20T11:17:14;8.80;99.90
21895;DHT22;11112;51.270;7.224;2022-12-20T11:20:15;8.80;99.90
21895;DHT22;11112;51.270;7.224;2022-12-20T11:22:55;8.80;99.90
21895;DHT22;11112;51.270;7.224;2022-12-20T11:25:45;8.90;99.90
21895;DHT22;11112;51.270;7.224;2022-12-20T11:28:37;8.90;99.90
21895;DHT22;11112;51.270;7.224;2022-12-20T11:31:20;8.90;99.90
21895;DHT22;11112;51.270;7.224;2022-12-20T11:34:02;8.90;99.90
21895;DHT22;11112;51.270;7.224;2022-12-20T11:36:52;8.90;99.90
21895;DHT22;11112;51.270;7.224;2022-12-20T11:39:30;9.00;99.90
21895;DHT22;11112;51.270;7.224;2022-12-20T11:42:08;9.00;99.90
21895;DHT22;11112;51.270;7.224;2022-12-20T11:44:52;8.90;99.90
21895;DHT22;11112;51.270;7.224;2022-12-20T11:47:44;8.90;99.90
21895;DHT22;11112;51.270;7.224;2022-12-20T11:50:35;9.00;99.90
21895;DHT22;11112;51.270;7.224;2022-12-20T11:53:17;9.00;99.90
21895;DHT22;11112;51.270;7.224;2022-12-20T11:55:51;9.00;99.90
21895;DHT22;11112;51.270;7.224;2022-12-20T11:58:24;9.00;99.90
21895;DHT22;11112;51.270;7.224;2022-12-20T12:00:56;9.00;99.90
21895;DHT22;11112;51.270;7.224;2022-12-20T12:03:31;9.00;99.90
21895;DHT22;11112;51.270;7.224;2022-12-20T12:06:06;9.00;99.90
21895;DHT22;11112;51.270;7.224;2022-12-20T12:08:42;9.00;99.90
21895;DHT22;11112;51.270;7.224;2022-12-20T12:11:16;9.00;99.90
21895;DHT22;11112;51.270;7.224;2022-12-20T12:13:46;9.00;99.90
21895;DHT22;11112;51.270;7.224;2022-12-20T12:16:21;9.00;99.90
21895;DHT22;11112;51.270;7.224;2022-12-20T12:18:51;9.00;99.90
21895;DHT22;11112;51.270;7.224;2022-12-20T12:21:22;9.00;99.90
21895;DHT22;11112;51.270;7.224;2022-12-20T12:24:00;9.00;99.90
21895;DHT22;11112;51.270;7.224;2022-12-20T12:26:32;9.00;99.90
21895;DHT22;11112;51.270;7.224;2022-12-20T12:29:02;9.00;99.90
21895;DHT22;11112;51.270;7.224;2022-12-20T12:31:38;9.10;99.90
21895;DHT22;11112;51.270;7.224;2022-12-20T12:34:13;9.00;99.90
21895;DHT22;11112;51.270;7.224;2022-12-20T12:37:18;9.00;99.90
21895;DHT22;11112;51.270;7.224;2022-12-20T12:40:32;9.00;99.90
21895;DHT22;11112;51.270;7.224;2022-12-20T12:43:36;9.10;99.90
21895;DHT22;11112;51.270;7.224;2022-12-20T12:46:12;9.10;99.90
21895;DHT22;11112;51.270;7.224;2022-12-20T12:48:45;9.10;99.90
21895;DHT22;11112;51.270;7.224;2022-12-20T12:51:24;9.10;99.90
21895;DHT22;11112;51.270;7.224;2022-12-20T12:54:02;9.10;99.90
21895;DHT22;11112;51.270;7.224;2022-12-20T12:56:42;9.10;99.90
21895;DHT22;11112;51.270;7.224;2022-12-20T13:02:50;9.10;99.90
21895;DHT22;11112;51.270;7.224;2022-12-20T13:05:34;9.10;99.90
21895;DHT22;11112;51.270;7.224;2022-12-20T13:08:02;9.10;99.90
21895;DHT22;11112;51.270;7.224;2022-12-20T13:10:59;9.10;99.90
21895;DHT22;11112;51.270;7.224;2022-12-20T13:13:28;9.10;99.90
21895;DHT22;11112;51.270;7.224;2022-12-20T13:16:10;9.10;99.90
21895;DHT22;11112;51.270;7.224;2022-12-20T13:19:10;9.10;99.90
21895;DHT22;11112;51.270;7.224;2022-12-20T13:21:41;9.10;99.90
21895;DHT22;11112;51.270;7.224;2022-12-20T13:24:38;9.10;99.90
21895;DHT22;11112;51.270;7.224;2022-12-20T13:27:27;9.10;99.90
21895;DHT22;11112;51.270;7.224;2022-12-20T13:30:23;9.10;99.90
21895;DHT22;11112;51.270;7.224;2022-12-20T13:33:37;9.10;99.90
21895;DHT22;11112;51.270;7.224;2022-12-20T13:36:34;9.10;99.90
21895;DHT22;11112;51.270;7.224;2022-12-20T13:39:32;9.10;99.90
21895;DHT22;11112;51.270;7.224;2022-12-20T13:42:17;9.00;99.90
21895;DHT22;11112;51.270;7.224;2022-12-20T13:44:55;9.00;99.90
21895;DHT22;11112;51.270;7.224;2022-12-20T13:47:39;9.00;99.90
21895;DHT22;11112;51.270;7.224;2022-12-20T13:50:26;9.00;99.90
21895;DHT22;11112;51.270;7.224;2022-12-20T13:53:00;9.00;99.90
21895;DHT22;11112;51.270;7.224;2022-12-20T13:55:36;9.00;99.90
21895;DHT22;11112;51.270;7.224;2022-12-20T13:58:05;9.00;99.90
21895;DHT22;11112;51.270;7.224;2022-12-20T14:00:38;9.00;99.90
21895;DHT22;11112;51.270;7.224;2022-12-20T14:03:20;9.00;99.90
21895;DHT22;11112;51.270;7.224;2022-12-20T14:05:54;9.00;99.90
21895;DHT22;11112;51.270;7.224;2022-12-20T14:08:29;9.00;99.90
21895;DHT22;11112;51.270;7.224;2022-12-20T14:11:13;9.00;99.90
21895;DHT22;11112;51.270;7.224;2022-12-20T14:13:41;9.00;99.90
21895;DHT22;11112;51.270;7.224;2022-12-20T14:16:13;9.00;99.90
21895;DHT22;11112;51.270;7.224;2022-12-20T14:18:46;9.00;99.90
21895;DHT22;11112;51.270;7.224;2022-12-20T14:21:14;9.00;99.90
21895;DHT22;11112;51.270;7.224;2022-12-20T14:23:44;9.00;99.90
21895;DHT22;11112;51.270;7.224;2022-12-20T14:26:19;9.00;99.90
21895;DHT22;11112;51.270;7.224;2022-12-20T14:28:49;9.00;99.90
21895;DHT22;11112;51.270;7.224;2022-12-20T14:31:24;9.00;99.90
21895;DHT22;11112;51.270;7.224;2022-12-20T14:34:01;9.00;99.90
21895;DHT22;11112;51.270;7.224;2022-12-20T14:36:30;9.00;99.90
21895;DHT22;11112;51.270;7.224;2022-12-20T14:38:59;9.00;99.90
21895;DHT22;11112;51.270;7.224;2022-12-20T14:41:32;9.00;99.90
21895;DHT22;11112;51.270;7.224;2022-12-20T14:44:03;9.00;99.90
21895;DHT22;11112;51.270;7.224;2022-12-20T14:46:46;9.00;99.90
21895;DHT22;11112;51.270;7.224;2022-12-20T14:49:21;9.00;99.90
21895;DHT22;11112;51.270;7.224;2022-12-20T14:51:51;9.00;99.90
21895;DHT22;11112;51.270;7.224;2022-12-20T14:54:23;9.00;99.90
21895;DHT22;11112;51.270;7.224;2022-12-20T14:56:54;9.00;99.90
21895;DHT22;11112;51.270;7.224;2022-12-20T14:59:24;9.00;99.90
21895;DHT22;11112;51.270;7.224;2022-12-20T15:01:53;9.00;99.90
21895;DHT22;11112;51.270;7.224;2022-12-20T15:04:23;9.00;99.90
21895;DHT22;11112;51.270;7.224;2022-12-20T15:06:56;9.00;99.90
21895;DHT22;11112;51.270;7.224;2022-12-20T15:09:24;9.00;99.90
21895;DHT22;11112;51.270;7.224;2022-12-20T15:11:53;9.00;99.90
21895;DHT22;11112;51.270;7.224;2022-12-20T15:14:32;9.00;99.90
21895;DHT22;11112;51.270;7.224;2022-12-20T15:17:02;9.00;99.90
21895;DHT22;11112;51.270;7.224;2022-12-20T15:19:30;9.00;99.90
21895;DHT22;11112;51.270;7.224;2022-12-20T15:21:57;9.00;99.90
21895;DHT22;11112;51.270;7.224;2022-12-20T15:24:28;9.00;99.90
21895;DHT22;11112;51.270;7.224;2022-12-20T15:26:58;9.00;99.90
21895;DHT22;11112;51.270;7.224;2022-12-20T15:29:26;9.00;99.90
21895;DHT22;11112;51.270;7.224;2022-12-20T15:31:58;9.00;99.90
21895;DHT22;11112;51.270;7.224;2022-12-20T15:34:33;9.00;99.90
21895;DHT22;11112;51.270;7.224;2022-12-20T15:37:02;9.00;99.90
21895;DHT22;11112;51.270;7.224;2022-12-20T15:39:32;9.00;99.90
21895;DHT22;11112;51.270;7.224;2022-12-20T15:42:03;9.00;99.90
21895;DHT22;11112;51.270;7.224;2022-12-20T15:44:32;9.00;99.90
21895;DHT22;11112;51.270;7.224;2022-12-20T15:47:01;9.00;99.90
21895;DHT22;11112;51.270;7.224;2022-12-20T15:49:30;9.00;99.90
21895;DHT22;11112;51.270;7.224;2022-12-20T15:51:58;9.00;99.90
21895;DHT22;11112;51.270;7.224;2022-12-20T15:54:28;9.00;99.90
21895;DHT22;11112;51.270;7.224;2022-12-20T15:56:57;9.00;99.90
21895;DHT22;11112;51.270;7.224;2022-12-20T15:59:29;9.00;99.90
21895;DHT22;11112;51.270;7.224;2022-12-20T16:01:56;9.00;99.90
21895;DHT22;11112;51.270;7.224;2022-12-20T16:04:24;9.00;99.90
21895;DHT22;11112;51.270;7.224;2022-12-20T16:06:53;9.00;99.90
21895;DHT22;11112;51.270;7.224;2022-12-20T16:09:20;9.00;99.90
21895;DHT22;11112;51.270;7.224;2022-12-20T16:11:50;9.00;99.90
21895;DHT22;11112;51.270;7.224;2022-12-20T16:14:19;9.00;99.90
21895;DHT22;11112;51.270;7.224;2022-12-20T16:16:49;9.00;99.90
21895;DHT22;11112;51.270;7.224;2022-12-20T16:19:17;9.00;99.90
21895;DHT22;11112;51.270;7.224;2022-12-20T16:21:46;9.00;99.90
21895;DHT22;11112;51.270;7.224;2022-12-20T16:24:16;9.00;99.90
21895;DHT22;11112;51.270;7.224;2022-12-20T16:26:45;9.00;99.90
21895;DHT22;11112;51.270;7.224;2022-12-20T16:29:14;9.00;99.90
21895;DHT22;11112;51.270;7.224;2022-12-20T16:31:42;9.00;99.90
21895;DHT22;11112;51.270;7.224;2022-12-20T16:34:12;9.00;99.90